sensor_id;sensor_type;location;lat;lon;timestamp;temperature;humidity
3310;DHT22;1667;53.238;10.394;2023-04-03T00:01:28;6.10;99.90
3310;DHT22;1667;53.238;10.394;2023-04-03T00:06:27;6.20;99.90
3310;DHT22;1667;53.238;10.394;2023-04-03T00:11:25;6.10;99.90
3310;DHT22;1667;53.238;10.394;2023-04-03T00:16:24;5.70;99.90
3310;DHT22;1667;53.238;10.394;2023-04-03T00:21:23;5.80;99.90
3310;DHT22;1667;53.238;10.394;2023-04-03T00:26:23;5.70;99.90
3310;DHT22;1667;53.238;10.394;2023-04-03T00:31:21;6.00;99.90
3310;DHT22;1667;53.238;10.394;2023-04-03T00:36:23;5.90;99.90
3310;DHT22;1667;53.238;10.394;2023-04-03T00:41:21;5.90;99.90
3310;DHT22;1667;53.238;10.394;2023-04-03T00:46:20;5.90;99.90
3310;DHT22;1667;53.238;10.394;2023-04-03T00:51:23;5.60;99.90
3310;DHT22;1667;53.238;10.394;2023-04-03T00:56:25;5.90;99.90
3310;DHT22;1667;53.238;10.394;2023-04-03T01:01:27;5.50;99.90
3310;DHT22;1667;53.238;10.394;2023-04-03T01:06:29;5.50;99.90
3310;DHT22;1667;53.238;10.394;2023-04-03T01:11:35;5.80;99.90
3310;DHT22;1667;53.238;10.394;2023-04-03T01:16:34;5.60;99.90
3310;DHT22;1667;53.238;10.394;2023-04-03T01:21:58;5.60;99.90
3310;DHT22;1667;53.238;10.394;2023-04-03T01:27:03;5.70;99.90
3310;DHT22;1667;53.238;10.394;2023-04-03T01:32:05;5.60;99.90
3310;DHT22;1667;53.238;10.394;2023-04-03T01:37:04;5.60;99.90
3310;DHT22;1667;53.238;10.394;2023-04-03T01:42:03;5.60;99.90
3310;DHT22;1667;53.238;10.394;2023-04-03T01:47:08;5.60;99.90
3310;DHT22;1667;53.238;10.394;2023-04-03T01:52:09;5.60;99.90
3310;DHT22;1667;53.238;10.394;2023-04-03T01:57:07;5.60;99.90
3310;DHT22;1667;53.238;10.394;2023-04-03T02:02:08;5.50;99.90
3310;DHT22;1667;53.238;10.394;2023-04-03T02:07:06;5.60;99.90
3310;DHT22;1667;53.238;10.394;2023-04-03T02:12:05;5.70;99.90
3310;DHT22;1667;53.238;10.394;2023-04-03T02:17:04;5.40;99.90
3310;DHT22;1667;53.238;10.394;2023-04-03T02:22:07;5.40;99.90
3310;DHT22;1667;53.238;10.394;2023-04-03T02:27:05;5.50;99.90
3310;DHT22;1667;53.238;10.394;2023-04-03T02:32:04;5.50;99.90
3310;DHT22;1667;53.238;10.394;2023-04-03T02:37:04;5.30;99.90
3310;DHT22;1667;53.238;10.394;2023-04-03T02:42:05;5.40;99.90
3310;DHT22;1667;53.238;10.394;2023-04-03T02:47:05;5.20;99.90
3310;DHT22;1667;53.238;10.394;2023-04-03T02:52:04;5.20;99.90
3310;DHT22;1667;53.238;10.394;2023-04-03T02:57:02;5.20;99.90
3310;DHT22;1667;53.238;10.394;2023-04-03T03:02:02;5.20;99.90
3310;DHT22;1667;53.238;10.394;2023-04-03T03:07:01;5.10;99.90
3310;DHT22;1667;53.238;10.394;2023-04-03T03:12:01;5.10;99.90
3310;DHT22;1667;53.238;10.394;2023-04-03T03:16:59;5.10;99.90
3310;DHT22;1667;53.238;10.394;2023-04-03T03:21:59;5.10;99.90
3310;DHT22;1667;53.238;10.394;2023-04-03T03:26:58;5.00;99.90
3310;DHT22;1667;53.238;10.394;2023-04-03T03:31:56;5.00;99.90
3310;DHT22;1667;53.238;10.394;2023-04-03T03:36:55;5.00;99.90
3310;DHT22;1667;53.238;10.394;2023-04-03T03:41:55;4.90;99.90
3310;DHT22;1667;53.238;10.394;2023-04-03T03:46:53;4.90;99.90
3310;DHT22;1667;53.238;10.394;2023-04-03T03:51:52;4.90;99.90
3310;DHT22;1667;53.238;10.394;2023-04-03T03:56:51;5.20;99.90
3310;DHT22;1667;53.238;10.394;2023-04-03T04:01:53;4.80;99.90
3310;DHT22;1667;53.238;10.394;2023-04-03T04:06:52;4.90;99.90
3310;DHT22;1667;53.238;10.394;2023-04-03T04:11:51;5.10;99.90
3310;DHT22;1667;53.238;10.394;2023-04-03T04:16:50;4.70;99.90
3310;DHT22;1667;53.238;10.394;2023-04-03T04:21:55;4.80;99.90
3310;DHT22;1667;53.238;10.394;2023-04-03T04:26:54;4.60;99.90
3310;DHT22;1667;53.238;10.394;2023-04-03T04:31:55;4.70;99.90
3310;DHT22;1667;53.238;10.394;2023-04-03T04:36:55;4.50;99.90
3310;DHT22;1667;53.238;10.394;2023-04-03T04:41:54;4.50;99.90
3310;DHT22;1667;53.238;10.394;2023-04-03T04:46:55;4.50;99.90
3310;DHT22;1667;53.238;10.394;2023-04-03T04:51:55;4.50;99.90
3310;DHT22;1667;53.238;10.394;2023-04-03T04:56:58;4.50;99.90
3310;DHT22;1667;53.238;10.394;2023-04-03T05:01:59;4.40;99.90
3310;DHT22;1667;53.238;10.394;2023-04-03T05:06:59;4.40;99.90
3310;DHT22;1667;53.238;10.394;2023-04-03T05:12:00;4.20;99.90
3310;DHT22;1667;53.238;10.394;2023-04-03T05:17:06;4.00;99.90
3310;DHT22;1667;53.238;10.394;2023-04-03T05:22:10;4.10;99.90
3310;DHT22;1667;53.238;10.394;2023-04-03T05:27:09;4.30;99.90
3310;DHT22;1667;53.238;10.394;2023-04-03T05:32:12;4.20;99.90
3310;DHT22;1667;53.238;10.394;2023-04-03T05:37:12;4.10;99.90
3310;DHT22;1667;53.238;10.394;2023-04-03T05:42:11;4.20;99.90
3310;DHT22;1667;53.238;10.394;2023-04-03T05:47:11;4.70;99.90
3310;DHT22;1667;53.238;10.394;2023-04-03T05:52:20;4.40;99.90
3310;DHT22;1667;53.238;10.394;2023-04-03T05:57:20;4.50;99.90
3310;DHT22;1667;53.238;10.394;2023-04-03T06:02:22;4.50;99.90
3310;DHT22;1667;53.238;10.394;2023-04-03T06:07:24;4.50;99.90
3310;DHT22;1667;53.238;10.394;2023-04-03T06:12:25;4.70;99.90
3310;DHT22;1667;53.238;10.394;2023-04-03T06:17:26;4.80;99.90
3310;DHT22;1667;53.238;10.394;2023-04-03T06:22:26;5.10;99.90
3310;DHT22;1667;53.238;10.394;2023-04-03T06:27:27;5.40;99.90
3310;DHT22;1667;53.238;10.394;2023-04-03T06:32:26;5.20;99.90
3310;DHT22;1667;53.238;10.394;2023-04-03T06:37:26;5.20;99.90
3310;DHT22;1667;53.238;10.394;2023-04-03T06:42:26;5.60;99.90
3310;DHT22;1667;53.238;10.394;2023-04-03T06:47:30;5.40;99.90
3310;DHT22;1667;53.238;10.394;2023-04-03T06:52:30;5.90;99.90
3310;DHT22;1667;53.238;10.394;2023-04-03T06:57:29;5.80;99.90
3310;DHT22;1667;53.238;10.394;2023-04-03T07:02:28;6.10;99.90
3310;DHT22;1667;53.238;10.394;2023-04-03T07:07:27;6.00;99.90
3310;DHT22;1667;53.238;10.394;2023-04-03T07:12:27;6.20;99.90
3310;DHT22;1667;53.238;10.394;2023-04-03T07:17:25;6.40;99.90
3310;DHT22;1667;53.238;10.394;2023-04-03T07:22:24;6.60;99.90
3310;DHT22;1667;53.238;10.394;2023-04-03T07:27:22;6.70;99.90
3310;DHT22;1667;53.238;10.394;2023-04-03T07:32:22;6.90;99.90
3310;DHT22;1667;53.238;10.394;2023-04-03T07:37:21;7.10;99.90
3310;DHT22;1667;53.238;10.394;2023-04-03T07:42:19;7.20;99.90
3310;DHT22;1667;53.238;10.394;2023-04-03T07:47:18;7.40;99.90
3310;DHT22;1667;53.238;10.394;2023-04-03T07:52:18;7.60;99.90
3310;DHT22;1667;53.238;10.394;2023-04-03T07:57:17;8.20;99.90
3310;DHT22;1667;53.238;10.394;2023-04-03T08:02:16;7.90;99.90
3310;DHT22;1667;53.238;10.394;2023-04-03T08:07:14;8.10;99.90
3310;DHT22;1667;53.238;10.394;2023-04-03T08:12:14;8.30;99.90
3310;DHT22;1667;53.238;10.394;2023-04-03T08:17:12;8.50;99.90
3310;DHT22;1667;53.238;10.394;2023-04-03T08:22:11;8.70;99.90
3310;DHT22;1667;53.238;10.394;2023-04-03T08:27:09;8.90;99.90
3310;DHT22;1667;53.238;10.394;2023-04-03T08:32:09;9.00;99.90
3310;DHT22;1667;53.238;10.394;2023-04-03T08:37:08;9.10;99.90
3310;DHT22;1667;53.238;10.394;2023-04-03T08:42:15;9.30;99.90
3310;DHT22;1667;53.238;10.394;2023-04-03T08:47:23;9.30;99.90
3310;DHT22;1667;53.238;10.394;2023-04-03T08:52:32;9.60;99.90
3310;DHT22;1667;53.238;10.394;2023-04-03T08:57:35;9.80;99.90
3310;DHT22;1667;53.238;10.394;2023-04-03T09:02:41;9.90;99.90
3310;DHT22;1667;53.238;10.394;2023-04-03T09:07:43;9.80;99.30
3310;DHT22;1667;53.238;10.394;2023-04-03T09:12:49;9.90;99.90
3310;DHT22;1667;53.238;10.394;2023-04-03T09:18:02;10.10;98.80
3310;DHT22;1667;53.238;10.394;2023-04-03T09:23:08;10.30;96.50
3310;DHT22;1667;53.238;10.394;2023-04-03T09:28:12;10.50;97.20
3310;DHT22;1667;53.238;10.394;2023-04-03T09:33:12;10.70;96.70
3310;DHT22;1667;53.238;10.394;2023-04-03T09:38:18;10.90;96.20
3310;DHT22;1667;53.238;10.394;2023-04-03T09:43:25;11.10;98.00
3310;DHT22;1667;53.238;10.394;2023-04-03T09:48:26;11.30;95.70
3310;DHT22;1667;53.238;10.394;2023-04-03T09:53:29;11.50;95.70
3310;DHT22;1667;53.238;10.394;2023-04-03T09:58:29;11.60;94.30
3310;DHT22;1667;53.238;10.394;2023-04-03T10:03:44;11.70;93.90
3310;DHT22;1667;53.238;10.394;2023-04-03T10:08:43;12.00;93.00
3310;DHT22;1667;53.238;10.394;2023-04-03T10:13:57;12.10;92.80
3310;DHT22;1667;53.238;10.394;2023-04-03T10:19:05;12.20;92.80
3310;DHT22;1667;53.238;10.394;2023-04-03T10:24:12;12.00;92.10
3310;DHT22;1667;53.238;10.394;2023-04-03T10:29:24;11.80;90.50
3310;DHT22;1667;53.238;10.394;2023-04-03T10:34:29;12.00;91.00
3310;DHT22;1667;53.238;10.394;2023-04-03T10:39:33;12.10;88.00
3310;DHT22;1667;53.238;10.394;2023-04-03T10:44:40;12.20;85.40
3310;DHT22;1667;53.238;10.394;2023-04-03T10:49:48;12.00;84.90
3310;DHT22;1667;53.238;10.394;2023-04-03T10:55:02;11.90;89.10
3310;DHT22;1667;53.238;10.394;2023-04-03T11:00:05;11.60;85.30
3310;DHT22;1667;53.238;10.394;2023-04-03T11:05:17;11.40;90.00
3310;DHT22;1667;53.238;10.394;2023-04-03T11:10:21;11.50;89.10
3310;DHT22;1667;53.238;10.394;2023-04-03T11:15:30;11.80;86.70
3310;DHT22;1667;53.238;10.394;2023-04-03T11:20:32;11.90;82.70
3310;DHT22;1667;53.238;10.394;2023-04-03T11:25:33;12.00;82.60
3310;DHT22;1667;53.238;10.394;2023-04-03T11:30:39;12.00;85.50
3310;DHT22;1667;53.238;10.394;2023-04-03T11:35:45;11.90;81.80
3310;DHT22;1667;53.238;10.394;2023-04-03T11:40:45;11.80;84.20
3310;DHT22;1667;53.238;10.394;2023-04-03T11:45:58;11.60;82.50
3310;DHT22;1667;53.238;10.394;2023-04-03T11:51:00;11.70;83.00
3310;DHT22;1667;53.238;10.394;2023-04-03T11:56:04;11.60;81.60
3310;DHT22;1667;53.238;10.394;2023-04-03T12:01:44;11.50;82.00
3310;DHT22;1667;53.238;10.394;2023-04-03T12:07:16;11.40;81.70
3310;DHT22;1667;53.238;10.394;2023-04-03T12:12:28;11.60;84.10
3310;DHT22;1667;53.238;10.394;2023-04-03T12:17:27;11.70;81.50
3310;DHT22;1667;53.238;10.394;2023-04-03T12:22:28;11.80;83.60
3310;DHT22;1667;53.238;10.394;2023-04-03T12:27:29;11.90;83.00
3310;DHT22;1667;53.238;10.394;2023-04-03T12:32:56;11.70;78.10
3310;DHT22;1667;53.238;10.394;2023-04-03T12:44:07;11.60;81.30
3310;DHT22;1667;53.238;10.394;2023-04-03T12:49:20;11.60;81.90
3310;DHT22;1667;53.238;10.394;2023-04-03T12:54:27;11.30;78.60
3310;DHT22;1667;53.238;10.394;2023-04-03T12:59:27;11.10;81.20
3310;DHT22;1667;53.238;10.394;2023-04-03T13:04:27;11.20;83.10
3310;DHT22;1667;53.238;10.394;2023-04-03T13:09:28;11.20;81.30
3310;DHT22;1667;53.238;10.394;2023-04-03T13:14:28;11.10;79.70
3310;DHT22;1667;53.238;10.394;2023-04-03T13:19:28;10.80;77.40
3310;DHT22;1667;53.238;10.394;2023-04-03T13:24:29;10.60;76.20
3310;DHT22;1667;53.238;10.394;2023-04-03T13:29:30;10.50;77.70
3310;DHT22;1667;53.238;10.394;2023-04-03T13:34:35;10.70;82.00
3310;DHT22;1667;53.238;10.394;2023-04-03T13:39:36;10.80;78.60
3310;DHT22;1667;53.238;10.394;2023-04-03T13:44:36;10.60;81.30
3310;DHT22;1667;53.238;10.394;2023-04-03T13:49:37;10.50;80.00
3310;DHT22;1667;53.238;10.394;2023-04-03T13:54:39;10.30;77.30
3310;DHT22;1667;53.238;10.394;2023-04-03T13:59:37;10.20;78.60
3310;DHT22;1667;53.238;10.394;2023-04-03T14:04:46;10.20;79.90
3310;DHT22;1667;53.238;10.394;2023-04-03T14:09:47;10.10;74.60
3310;DHT22;1667;53.238;10.394;2023-04-03T14:14:46;9.90;83.90
3310;DHT22;1667;53.238;10.394;2023-04-03T14:19:46;9.90;77.30
3310;DHT22;1667;53.238;10.394;2023-04-03T14:24:47;9.60;77.90
3310;DHT22;1667;53.238;10.394;2023-04-03T14:29:47;9.40;82.00
3310;DHT22;1667;53.238;10.394;2023-04-03T14:34:46;9.40;77.40
3310;DHT22;1667;53.238;10.394;2023-04-03T14:39:48;9.40;81.20
3310;DHT22;1667;53.238;10.394;2023-04-03T14:44:47;9.50;77.10
3310;DHT22;1667;53.238;10.394;2023-04-03T14:49:45;9.20;77.20
3310;DHT22;1667;53.238;10.394;2023-04-03T14:54:44;9.20;77.90
3310;DHT22;1667;53.238;10.394;2023-04-03T14:59:44;9.20;78.30
3310;DHT22;1667;53.238;10.394;2023-04-03T15:04:43;9.10;87.90
3310;DHT22;1667;53.238;10.394;2023-04-03T15:09:42;9.20;79.00
3310;DHT22;1667;53.238;10.394;2023-04-03T15:14:41;8.80;78.20
3310;DHT22;1667;53.238;10.394;2023-04-03T15:19:50;8.90;80.80
3310;DHT22;1667;53.238;10.394;2023-04-03T15:24:49;9.00;80.70
3310;DHT22;1667;53.238;10.394;2023-04-03T15:29:47;9.00;80.00
3310;DHT22;1667;53.238;10.394;2023-04-03T15:34:46;8.50;77.20
3310;DHT22;1667;53.238;10.394;2023-04-03T15:39:46;8.50;79.70
3310;DHT22;1667;53.238;10.394;2023-04-03T15:44:44;8.20;77.40
3310;DHT22;1667;53.238;10.394;2023-04-03T15:49:43;8.10;76.30
3310;DHT22;1667;53.238;10.394;2023-04-03T15:54:42;8.00;77.90
3310;DHT22;1667;53.238;10.394;2023-04-03T15:59:41;8.00;79.50
3310;DHT22;1667;53.238;10.394;2023-04-03T16:04:40;7.90;77.30
3310;DHT22;1667;53.238;10.394;2023-04-03T16:09:39;7.70;76.10
3310;DHT22;1667;53.238;10.394;2023-04-03T16:14:37;7.50;75.40
3310;DHT22;1667;53.238;10.394;2023-04-03T16:19:37;7.20;76.40
3310;DHT22;1667;53.238;10.394;2023-04-03T16:24:36;7.20;78.40
3310;DHT22;1667;53.238;10.394;2023-04-03T16:29:35;7.20;79.10
3310;DHT22;1667;53.238;10.394;2023-04-03T16:34:33;7.10;78.40
3310;DHT22;1667;53.238;10.394;2023-04-03T16:39:33;7.20;81.90
3310;DHT22;1667;53.238;10.394;2023-04-03T16:44:32;7.40;83.30
3310;DHT22;1667;53.238;10.394;2023-04-03T16:49:30;7.60;84.10
3310;DHT22;1667;53.238;10.394;2023-04-03T16:54:32;7.70;83.30
3310;DHT22;1667;53.238;10.394;2023-04-03T16:59:31;7.70;83.80
3310;DHT22;1667;53.238;10.394;2023-04-03T17:04:30;7.60;81.20
3310;DHT22;1667;53.238;10.394;2023-04-03T17:09:28;7.30;83.00
3310;DHT22;1667;53.238;10.394;2023-04-03T17:14:28;7.10;77.60
3310;DHT22;1667;53.238;10.394;2023-04-03T17:19:28;7.10;85.80
3310;DHT22;1667;53.238;10.394;2023-04-03T17:24:27;7.10;80.30
3310;DHT22;1667;53.238;10.394;2023-04-03T17:29:27;7.10;84.80
3310;DHT22;1667;53.238;10.394;2023-04-03T17:34:26;6.70;81.40
3310;DHT22;1667;53.238;10.394;2023-04-03T17:39:24;6.70;83.70
3310;DHT22;1667;53.238;10.394;2023-04-03T17:44:23;6.70;82.60
3310;DHT22;1667;53.238;10.394;2023-04-03T17:49:23;6.60;83.70
3310;DHT22;1667;53.238;10.394;2023-04-03T17:54:22;6.30;86.20
3310;DHT22;1667;53.238;10.394;2023-04-03T17:59:20;6.50;85.20
3310;DHT22;1667;53.238;10.394;2023-04-03T18:04:19;6.20;88.20
3310;DHT22;1667;53.238;10.394;2023-04-03T18:09:20;6.50;87.90
3310;DHT22;1667;53.238;10.394;2023-04-03T18:14:22;6.40;87.50
3310;DHT22;1667;53.238;10.394;2023-04-03T18:19:22;6.10;88.80
3310;DHT22;1667;53.238;10.394;2023-04-03T18:24:26;6.20;88.10
3310;DHT22;1667;53.238;10.394;2023-04-03T18:29:25;6.00;89.40
3310;DHT22;1667;53.238;10.394;2023-04-03T18:34:26;6.00;90.90
3310;DHT22;1667;53.238;10.394;2023-04-03T18:39:25;6.30;91.00
3310;DHT22;1667;53.238;10.394;2023-04-03T18:44:25;6.10;90.90
3310;DHT22;1667;53.238;10.394;2023-04-03T18:49:25;5.90;90.10
3310;DHT22;1667;53.238;10.394;2023-04-03T18:54:26;6.10;92.20
3310;DHT22;1667;53.238;10.394;2023-04-03T18:59:24;6.20;92.20
3310;DHT22;1667;53.238;10.394;2023-04-03T19:04:24;6.20;91.60
3310;DHT22;1667;53.238;10.394;2023-04-03T19:09:25;6.30;91.20
3310;DHT22;1667;53.238;10.394;2023-04-03T19:14:24;6.20;90.90
3310;DHT22;1667;53.238;10.394;2023-04-03T19:19:22;5.90;92.90
3310;DHT22;1667;53.238;10.394;2023-04-03T19:24:21;5.90;93.80
3310;DHT22;1667;53.238;10.394;2023-04-03T19:29:21;6.20;94.80
3310;DHT22;1667;53.238;10.394;2023-04-03T19:34:19;6.50;94.90
3310;DHT22;1667;53.238;10.394;2023-04-03T19:39:18;6.80;94.80
3310;DHT22;1667;53.238;10.394;2023-04-03T19:44:17;7.00;95.10
3310;DHT22;1667;53.238;10.394;2023-04-03T19:49:17;6.80;94.70
3310;DHT22;1667;53.238;10.394;2023-04-03T19:54:15;7.00;95.00
3310;DHT22;1667;53.238;10.394;2023-04-03T19:59:14;7.10;95.50
3310;DHT22;1667;53.238;10.394;2023-04-03T20:04:13;7.10;95.50
3310;DHT22;1667;53.238;10.394;2023-04-03T20:09:13;7.10;95.60
3310;DHT22;1667;53.238;10.394;2023-04-03T20:14:14;7.10;95.20
3310;DHT22;1667;53.238;10.394;2023-04-03T20:19:13;7.10;95.80
3310;DHT22;1667;53.238;10.394;2023-04-03T20:24:14;7.10;95.90
3310;DHT22;1667;53.238;10.394;2023-04-03T20:29:13;7.30;96.20
3310;DHT22;1667;53.238;10.394;2023-04-03T20:34:12;7.10;95.80
3310;DHT22;1667;53.238;10.394;2023-04-03T20:39:13;6.90;96.40
3310;DHT22;1667;53.238;10.394;2023-04-03T20:44:12;7.00;96.40
3310;DHT22;1667;53.238;10.394;2023-04-03T20:49:14;7.00;96.50
3310;DHT22;1667;53.238;10.394;2023-04-03T20:54:15;6.90;96.50
3310;DHT22;1667;53.238;10.394;2023-04-03T20:59:13;6.90;96.30
3310;DHT22;1667;53.238;10.394;2023-04-03T21:04:19;6.70;96.20
3310;DHT22;1667;53.238;10.394;2023-04-03T21:20:32;6.30;97.00
3310;DHT22;1667;53.238;10.394;2023-04-03T21:25:30;6.20;97.20
3310;DHT22;1667;53.238;10.394;2023-04-03T21:30:29;6.40;97.20
3310;DHT22;1667;53.238;10.394;2023-04-03T21:35:27;6.50;97.40
3310;DHT22;1667;53.238;10.394;2023-04-03T21:40:28;6.80;97.30
3310;DHT22;1667;53.238;10.394;2023-04-03T21:45:27;6.40;97.30
3310;DHT22;1667;53.238;10.394;2023-04-03T21:50:26;6.50;97.40
3310;DHT22;1667;53.238;10.394;2023-04-03T21:55:25;6.50;97.20
3310;DHT22;1667;53.238;10.394;2023-04-03T22:00:25;6.70;97.20
3310;DHT22;1667;53.238;10.394;2023-04-03T22:05:24;6.40;96.90
3310;DHT22;1667;53.238;10.394;2023-04-03T22:10:22;6.40;95.90
3310;DHT22;1667;53.238;10.394;2023-04-03T22:15:21;6.00;97.30
3310;DHT22;1667;53.238;10.394;2023-04-03T22:20:21;6.00;97.20
3310;DHT22;1667;53.238;10.394;2023-04-03T22:25:19;6.00;96.30
3310;DHT22;1667;53.238;10.394;2023-04-03T22:30:18;6.10;96.70
3310;DHT22;1667;53.238;10.394;2023-04-03T22:35:16;5.60;95.10
3310;DHT22;1667;53.238;10.394;2023-04-03T22:40:16;5.10;95.70
3310;DHT22;1667;53.238;10.394;2023-04-03T22:45:15;5.10;97.10
3310;DHT22;1667;53.238;10.394;2023-04-03T22:50:13;5.50;97.50
3310;DHT22;1667;53.238;10.394;2023-04-03T22:55:12;5.50;97.80
3310;DHT22;1667;53.238;10.394;2023-04-03T23:00:17;5.60;97.40
3310;DHT22;1667;53.238;10.394;2023-04-03T23:05:16;5.60;97.00
3310;DHT22;1667;53.238;10.394;2023-04-03T23:10:15;5.50;97.00
3310;DHT22;1667;53.238;10.394;2023-04-03T23:15:14;5.10;95.40
3310;DHT22;1667;53.238;10.394;2023-04-03T23:26:29;4.70;97.10
3310;DHT22;1667;53.238;10.394;2023-04-03T23:31:28;4.80;97.40
3310;DHT22;1667;53.238;10.394;2023-04-03T23:36:26;5.00;97.50
3310;DHT22;1667;53.238;10.394;2023-04-03T23:41:24;5.20;97.60
3310;DHT22;1667;53.238;10.394;2023-04-03T23:46:24;5.30;97.50
3310;DHT22;1667;53.238;10.394;2023-04-03T23:51:23;5.30;97.50
3310;DHT22;1667;53.238;10.394;2023-04-03T23:56:21;5.40;97.40
